Castella, California
Current Conditions -  °F | °C
As of 8:32 AM on Friday 31 Oct 2014 (Local Time) from KMHS Reporting Station
Heavy Rain Heavy Rain  
Wind Chill: 47°   Ceiling: 2300
Heat Index: 47°   Visibility: 2.5mi
Dew Point: 46°   Wind: 0mph
Humidity: 97%   Direction: NA
Pressure: 29.83"   Gusts: NA
Location:  41.14°N, 122.32°W
Report Text: KMHS 311532Z AUTO 00000KT 2 1/2SM +RA BR FEW009 BKN023 OVC033 08/08 A2983 RMK AO2 P0015 T00830078
Loading
Personal Weather Stations






























Interactive Weather Map
Tropical Storm Tracking
New forecast layout! Learn more

10-Day Weather Forecast

Advertisements
Track Severe Weather on mobile